Weather observations for the past three days for
Wales
Metric (Imperial)
Date Time (akdt) Wind (kph) Vis. (km) Weather Sky Cond. Temperature (ºC) Relative Humidity Wind Chill (°C) Heat Index (°C) Pressure Precipitation (cm)
Air Dwpt 6 hour altimeter (cm) sea level (mb) 1 hr 3 hr 6 hr
Max. Min.
06 00:56 Calm 16.09 Fair CLR -7.2 -7.2 100% 76.3 1017.4
05 23:56 NW 9 16.09 Fair CLR -6.1 -6.7 96% -10 76.28 1017.0
05 22:56 N 9 16.09 Overcast OVC015 -4.4 -6.1 88% -8 76.28 1017.0
05 20:56 N 9 16.09 Overcast OVC013 -3.9 -6.1 85% -7 76.25 1016.6
05 18:56 N 13 16.09 Overcast OVC011 -2.2 -5 81% -6 76.23 1016.3
05 17:56 NW 9 16.09 Overcast OVC011 -1.7 -5 78% -5 76.23 1016.1
05 16:56 Vrbl 6 16.09 Overcast OVC009 -1.1 -5 75% 76.23 1016.1
05 14:56 NW 11 16.09 Overcast OVC013 -1.1 -5.6 72% -5 76.2 1015.9
05 13:56 Calm 16.09 Overcast OVC013 -1.1 -6.1 69% 76.2 1015.8
05 12:56 NE 6 16.09 Overcast OVC013 -2.2 -6.1 75% 76.17 1015.6
05 11:56 NE 6 16.09 Overcast OVC013 -3.3 -6.1 81% 76.17 1015.7
05 10:56 NE 7 16.09 Overcast OVC011 -3.9 -5.6 88% -7 76.17 1015.7
05 09:56 Calm 16.09 Overcast OVC009 -4.4 -5.6 -4.4 -5 91% 76.2 1015.8
05 08:56 NE 6 16.09 Overcast OVC009 -5 -5.6 96% 76.17 1015.7
05 07:56 N 7 16.09 Overcast OVC009 -5 -5.6 96% -8 76.17 1015.4
05 06:56 N 7 16.09 Overcast OVC009 -5 -5 100% -8 76.15 1015.4
05 05:56 N 7 16.09 Overcast OVC009 -5 -5 100% -8 76.15 1015.4
05 04:56 N 6 16.09 Overcast OVC009 -5 -5.6 96% 76.17 1015.4
05 03:56 Vrbl 7 16.09 Overcast OVC009 -5 -5 -3.9 -5 100% -8 76.17 1015.6
05 02:56 Calm 16.09 Overcast OVC009 -4.4 -5 96% 76.2 1015.9
05 01:56 W 7 16.09 Overcast OVC009 -4.4 -5 96% -7 76.23 1016.3
05 00:56 SW 6 16.09 Overcast OVC009 -4.4 -4.4 100% 76.25 1016.6
04 23:56 Calm 16.09 Overcast OVC009 -4.4 -4.4 100% 76.28 1017.0
04 22:56 Calm 16.09 Overcast OVC007 -3.9 -3.9 100% 76.28 1017.1
04 21:56 W 6 16.09 Overcast OVC005 -3.9 -3.9 -2.8 -3.9 100% 76.3 1017.3
04 20:56 W 11 16.09 Overcast OVC005 -3.3 -3.9 96% -7 76.33 1017.5
04 19:56 SW 9 16.09 Overcast OVC005 -3.9 -3.9 100% -7 76.33 1017.7
04 18:56 SW 7 16.09 Overcast OVC005 -3.3 -3.3 100% -6 76.35 1018.0
04 17:56 S 11 16.09 Overcast OVC005 -2.8 -3.3 96% -7 76.38 1018.3
04 16:56 SW 11 16.09 Overcast OVC005 -3.3 -3.3 100% -7 76.43 1018.9
04 15:56 SW 15 16.09 Overcast OVC005 -3.3 -3.3 -3.3 -4.4 100% -8 76.45 1019.3
04 14:56 S 13 16.09 Overcast OVC005 -3.3 -3.3 100% -8 76.48 1019.7
04 13:56 SW 17 16.09 Overcast OVC005 -3.9 -3.9 100% -9 76.5 1020.0
04 12:56 SW 13 16.09 Overcast OVC003 -3.9 -3.9 100% -8 76.53 1020.1
04 11:56 S 17 16.09 Overcast OVC003 -4.4 -4.4 100% -10 76.53 1020.4
04 10:56 S 15 16.09 Overcast OVC003 -4.4 -4.4 100% -9 76.53 1020.4
04 09:56 S 20 14.48 Light Snow OVC003 -4.4 -4.4 -3.3 -4.4 100% -10 76.53 1020.3
04 08:56 S 20 14.48 Light Snow OVC005 -3.9 -3.9 100% -10 76.53 1020.3
04 07:56 SW 22 14.48 Light Snow OVC005 -4.4 -4.4 100% -11 76.5 1019.9
04 05:56 S 31 14.48 Light Snow OVC005 -3.9 -3.9 100% -11 76.5 1019.8
04 03:56 SW 22 16.09 Overcast OVC007 -3.3 -3.3 -1.7 -3.3 100% -9 76.48 1019.6
04 02:56 SW 22 16.09 Overcast OVC007 -3.3 -3.3 100% -9 76.45 1019.4
04 01:56 S 28 14.48 Light Snow OVC009 -2.8 -2.8 100% -9 76.45 1019.2
04 00:56 S 28 14.48 Light Snow OVC009 -2.8 -2.8 100% -9 76.45 1019.2
03 23:56 S 26 16.09 Overcast OVC011 -2.2 -2.2 100% -8 76.43 1018.8
03 22:56 S 22 16.09 Overcast FEW009 OVC044 -2.2 -2.2 100% -8 76.4 1018.5
03 21:56 S 22 16.09 Mostly Cloudy BKN014 -1.7 -2.2 -1.1 -1.7 96% -7 76.38 1018.3
03 20:56 S 22 16.09 Overcast OVC024 -1.7 -1.7 100% -7 76.38 1018.3
03 19:56 S 24 16.09 Overcast OVC014 -1.7 -2.2 96% -8 76.38 1018.2
03 18:56 SW 26 16.09 Overcast OVC024 -1.7 -2.8 92% -8 76.35 1018.1
03 17:56 S 28 16.09 Unknown Precip OVC018 -1.7 -2.2 96% -8 76.35 1017.8
03 16:56 S 28 16.09 Overcast BKN016 OVC021 -1.1 -1.7 96% -7 76.33 1017.8
03 15:56 SW 31 16.09 Overcast SCT012 OVC019 -1.1 -2.2 -1.1 -2.2 92% -8 76.33 1017.7
03 14:56 S 30 16.09 Overcast BKN014 OVC019 -1.7 -2.2 96% -8 76.33 1017.7
03 13:56 S 33 16.09 Overcast and Breezy BKN021 OVC029 -1.1 -2.8 88% -8 76.33 1017.5
03 12:56 S 31 16.09 Overcast OVC019 -1.7 -3.3 89% -8 76.3 1017.3
03 11:56 SW 30 16.09 Overcast OVC013 -1.7 -2.2 96% -8 76.28 1016.9
03 10:56 S 37 16.09 Overcast and Breezy OVC010 -2.2 -2.2 100% -10 76.23 1016.2
03 09:56 S 33 14.48 Light Snow and Breezy OVC007 -2.2 -2.2 -2.2 -3.3 100% -9 76.2 1016.0
03 08:56 S 37 11.27 Light Snow and Breezy OVC009 -2.2 -2.2 100% -10 76.2 1015.8
03 07:56 S 30 14.48 Light Snow OVC013 -2.8 -2.8 100% -10 76.17 1015.6
03 06:56 S 37 16.09 Overcast and Breezy FEW011 OVC026 -2.8 -2.8 100% -10 76.17 1015.5
03 05:56 S 24 16.09 Overcast OVC026 -2.8 -2.8 100% -9 76.15 1015.3
03 04:56 S 24 16.09 Overcast SCT011 OVC024 -3.3 -3.3 100% -10 76.15 1015.3
03 03:56 S 20 16.09 Overcast OVC024 -3.3 -3.9 -3.3 -5 96% -9 76.15 1015.2
03 02:56 S 22 16.09 Overcast OVC026 -3.3 -4.4 92% -9 76.12 1014.8
Date Time (akdt) Wind (kph) Vis. (km) Weather Sky Cond. Air Dwpt Max. Min. Relative Humidity Wind Chill (°C) Heat Index (°C) altimeter (cm) sea level (mb) 1 hr 3 hr 6 hr
6 hour
Temperature (ºC) Pressure Precipitation (cm)